sensor_id;sensor_type;location;lat;lon;timestamp;P1;durP1;ratioP1;P2;durP2;ratioP2
69087;SDS011;56190;43.562;5.036;2022-12-07T00:01:30;29.25;;;23.20;;
69087;SDS011;56190;43.562;5.036;2022-12-07T00:03:55;32.65;;;25.85;;
69087;SDS011;56190;43.562;5.036;2022-12-07T00:06:34;32.25;;;25.23;;
69087;SDS011;56190;43.562;5.036;2022-12-07T00:09:00;29.10;;;22.90;;
69087;SDS011;56190;43.562;5.036;2022-12-07T00:11:25;27.73;;;21.85;;
69087;SDS011;56190;43.562;5.036;2022-12-07T00:13:51;28.08;;;20.45;;
69087;SDS011;56190;43.562;5.036;2022-12-07T00:16:18;26.63;;;19.55;;
69087;SDS011;56190;43.562;5.036;2022-12-07T00:18:43;25.92;;;19.63;;
69087;SDS011;56190;43.562;5.036;2022-12-07T00:21:10;27.20;;;20.92;;
69087;SDS011;56190;43.562;5.036;2022-12-07T00:23:35;25.75;;;19.77;;
69087;SDS011;56190;43.562;5.036;2022-12-07T00:26:05;26.23;;;20.27;;
69087;SDS011;56190;43.562;5.036;2022-12-07T00:28:30;25.27;;;18.95;;
69087;SDS011;56190;43.562;5.036;2022-12-07T00:31:07;27.60;;;19.17;;
69087;SDS011;56190;43.562;5.036;2022-12-07T00:33:33;24.90;;;18.65;;
69087;SDS011;56190;43.562;5.036;2022-12-07T00:35:59;26.40;;;18.70;;
69087;SDS011;56190;43.562;5.036;2022-12-07T00:38:26;25.98;;;19.67;;
69087;SDS011;56190;43.562;5.036;2022-12-07T00:40:58;26.73;;;19.05;;
69087;SDS011;56190;43.562;5.036;2022-12-07T00:43:24;23.90;;;17.88;;
69087;SDS011;56190;43.562;5.036;2022-12-07T00:45:49;24.02;;;17.25;;
69087;SDS011;56190;43.562;5.036;2022-12-07T00:48:15;23.55;;;17.65;;
69087;SDS011;56190;43.562;5.036;2022-12-07T00:50:40;23.05;;;17.52;;
69087;SDS011;56190;43.562;5.036;2022-12-07T00:53:05;21.92;;;17.20;;
69087;SDS011;56190;43.562;5.036;2022-12-07T00:55:37;22.85;;;16.25;;
69087;SDS011;56190;43.562;5.036;2022-12-07T00:58:02;23.58;;;17.35;;
69087;SDS011;56190;43.562;5.036;2022-12-07T01:00:28;21.30;;;17.02;;
69087;SDS011;56190;43.562;5.036;2022-12-07T01:02:53;21.73;;;16.48;;
69087;SDS011;56190;43.562;5.036;2022-12-07T01:05:18;19.40;;;15.23;;
69087;SDS011;56190;43.562;5.036;2022-12-07T01:07:44;21.90;;;16.48;;
69087;SDS011;56190;43.562;5.036;2022-12-07T01:10:09;22.17;;;16.05;;
69087;SDS011;56190;43.562;5.036;2022-12-07T01:12:34;20.75;;;16.33;;
69087;SDS011;56190;43.562;5.036;2022-12-07T01:15:00;22.85;;;16.40;;
69087;SDS011;56190;43.562;5.036;2022-12-07T01:17:25;22.27;;;16.02;;
69087;SDS011;56190;43.562;5.036;2022-12-07T01:19:50;20.90;;;16.05;;
69087;SDS011;56190;43.562;5.036;2022-12-07T01:22:16;22.80;;;16.65;;
69087;SDS011;56190;43.562;5.036;2022-12-07T01:24:41;21.80;;;15.85;;
69087;SDS011;56190;43.562;5.036;2022-12-07T01:27:06;22.70;;;16.73;;
69087;SDS011;56190;43.562;5.036;2022-12-07T01:29:31;21.98;;;15.73;;
69087;SDS011;56190;43.562;5.036;2022-12-07T01:31:57;23.08;;;16.38;;
69087;SDS011;56190;43.562;5.036;2022-12-07T01:34:22;20.25;;;14.88;;
69087;SDS011;56190;43.562;5.036;2022-12-07T01:36:47;21.23;;;15.95;;
69087;SDS011;56190;43.562;5.036;2022-12-07T01:39:13;20.13;;;15.25;;
69087;SDS011;56190;43.562;5.036;2022-12-07T01:41:39;22.55;;;16.17;;
69087;SDS011;56190;43.562;5.036;2022-12-07T01:46:33;20.95;;;16.40;;
69087;SDS011;56190;43.562;5.036;2022-12-07T01:48:58;20.90;;;15.38;;
69087;SDS011;56190;43.562;5.036;2022-12-07T01:51:24;20.02;;;15.50;;
69087;SDS011;56190;43.562;5.036;2022-12-07T01:53:50;21.20;;;15.20;;
69087;SDS011;56190;43.562;5.036;2022-12-07T01:56:17;20.77;;;15.30;;
69087;SDS011;56190;43.562;5.036;2022-12-07T01:58:44;21.95;;;15.40;;
69087;SDS011;56190;43.562;5.036;2022-12-07T02:01:09;20.40;;;15.02;;
69087;SDS011;56190;43.562;5.036;2022-12-07T02:03:36;20.70;;;14.95;;
69087;SDS011;56190;43.562;5.036;2022-12-07T02:06:03;20.42;;;14.57;;
69087;SDS011;56190;43.562;5.036;2022-12-07T02:08:29;20.70;;;14.82;;
69087;SDS011;56190;43.562;5.036;2022-12-07T02:10:54;20.48;;;15.32;;
69087;SDS011;56190;43.562;5.036;2022-12-07T02:13:21;18.17;;;14.07;;
69087;SDS011;56190;43.562;5.036;2022-12-07T02:31:12;19.30;;;14.45;;
69087;SDS011;56190;43.562;5.036;2022-12-07T02:33:46;18.92;;;13.95;;
69087;SDS011;56190;43.562;5.036;2022-12-07T02:36:15;18.80;;;14.60;;
69087;SDS011;56190;43.562;5.036;2022-12-07T02:41:10;17.48;;;13.68;;
69087;SDS011;56190;43.562;5.036;2022-12-07T02:43:38;19.42;;;13.40;;
69087;SDS011;56190;43.562;5.036;2022-12-07T02:46:06;19.65;;;14.65;;
69087;SDS011;56190;43.562;5.036;2022-12-07T02:48:32;28.25;;;20.40;;
69087;SDS011;56190;43.562;5.036;2022-12-07T02:50:58;27.95;;;20.08;;
69087;SDS011;56190;43.562;5.036;2022-12-07T02:55:58;24.77;;;17.73;;
69087;SDS011;56190;43.562;5.036;2022-12-07T02:58:29;25.50;;;19.55;;
69087;SDS011;56190;43.562;5.036;2022-12-07T03:03:38;22.42;;;16.70;;
69087;SDS011;56190;43.562;5.036;2022-12-07T03:06:10;20.42;;;15.45;;
69087;SDS011;56190;43.562;5.036;2022-12-07T03:08:47;18.98;;;13.85;;
69087;SDS011;56190;43.562;5.036;2022-12-07T03:11:14;20.85;;;15.13;;
69087;SDS011;56190;43.562;5.036;2022-12-07T03:13:44;16.83;;;12.70;;
69087;SDS011;56190;43.562;5.036;2022-12-07T03:18:38;17.73;;;12.23;;
69087;SDS011;56190;43.562;5.036;2022-12-07T03:21:10;15.82;;;12.23;;
69087;SDS011;56190;43.562;5.036;2022-12-07T03:23:37;15.07;;;12.07;;
69087;SDS011;56190;43.562;5.036;2022-12-07T03:26:02;18.33;;;13.80;;
69087;SDS011;56190;43.562;5.036;2022-12-07T03:28:31;23.75;;;18.23;;
69087;SDS011;56190;43.562;5.036;2022-12-07T03:31:12;25.25;;;19.20;;
69087;SDS011;56190;43.562;5.036;2022-12-07T03:33:47;24.63;;;18.85;;
69087;SDS011;56190;43.562;5.036;2022-12-07T03:36:28;24.08;;;18.48;;
69087;SDS011;56190;43.562;5.036;2022-12-07T03:38:55;25.85;;;20.20;;
69087;SDS011;56190;43.562;5.036;2022-12-07T03:41:24;25.88;;;21.13;;
69087;SDS011;56190;43.562;5.036;2022-12-07T03:43:49;26.00;;;21.23;;
69087;SDS011;56190;43.562;5.036;2022-12-07T03:48:41;19.58;;;16.13;;
69087;SDS011;56190;43.562;5.036;2022-12-07T03:53:38;22.00;;;16.50;;
69087;SDS011;56190;43.562;5.036;2022-12-07T03:56:04;18.27;;;14.25;;
69087;SDS011;56190;43.562;5.036;2022-12-07T03:58:30;17.00;;;12.52;;
69087;SDS011;56190;43.562;5.036;2022-12-07T04:00:56;14.18;;;11.15;;
69087;SDS011;56190;43.562;5.036;2022-12-07T04:03:21;16.80;;;11.68;;
69087;SDS011;56190;43.562;5.036;2022-12-07T04:05:47;15.25;;;10.18;;
69087;SDS011;56190;43.562;5.036;2022-12-07T04:08:12;13.48;;;10.55;;
69087;SDS011;56190;43.562;5.036;2022-12-07T04:10:37;14.80;;;11.10;;
69087;SDS011;56190;43.562;5.036;2022-12-07T04:13:03;15.70;;;11.77;;
69087;SDS011;56190;43.562;5.036;2022-12-07T04:15:28;17.77;;;13.52;;
69087;SDS011;56190;43.562;5.036;2022-12-07T04:17:53;20.02;;;16.52;;
69087;SDS011;56190;43.562;5.036;2022-12-07T04:20:20;19.65;;;16.13;;
69087;SDS011;56190;43.562;5.036;2022-12-07T04:22:45;24.25;;;20.33;;
69087;SDS011;56190;43.562;5.036;2022-12-07T04:25:10;17.42;;;13.80;;
69087;SDS011;56190;43.562;5.036;2022-12-07T04:27:35;15.98;;;12.32;;
69087;SDS011;56190;43.562;5.036;2022-12-07T04:30:01;13.57;;;10.73;;
69087;SDS011;56190;43.562;5.036;2022-12-07T04:32:26;14.05;;;11.07;;
69087;SDS011;56190;43.562;5.036;2022-12-07T04:34:51;13.75;;;10.68;;
69087;SDS011;56190;43.562;5.036;2022-12-07T04:37:17;13.18;;;10.63;;
69087;SDS011;56190;43.562;5.036;2022-12-07T04:39:42;12.38;;;9.60;;
69087;SDS011;56190;43.562;5.036;2022-12-07T04:42:09;13.52;;;10.20;;
69087;SDS011;56190;43.562;5.036;2022-12-07T04:44:35;14.98;;;11.10;;
69087;SDS011;56190;43.562;5.036;2022-12-07T04:47:00;14.30;;;10.77;;
69087;SDS011;56190;43.562;5.036;2022-12-07T04:49:25;12.15;;;10.75;;
69087;SDS011;56190;43.562;5.036;2022-12-07T04:51:51;13.55;;;10.57;;
69087;SDS011;56190;43.562;5.036;2022-12-07T04:54:16;12.93;;;10.68;;
69087;SDS011;56190;43.562;5.036;2022-12-07T04:56:42;13.80;;;10.05;;
69087;SDS011;56190;43.562;5.036;2022-12-07T04:59:07;13.40;;;11.10;;
69087;SDS011;56190;43.562;5.036;2022-12-07T05:01:32;12.32;;;10.18;;
69087;SDS011;56190;43.562;5.036;2022-12-07T05:03:58;12.30;;;9.82;;
69087;SDS011;56190;43.562;5.036;2022-12-07T05:06:23;13.25;;;9.80;;
69087;SDS011;56190;43.562;5.036;2022-12-07T05:08:48;12.65;;;10.68;;
69087;SDS011;56190;43.562;5.036;2022-12-07T05:11:14;14.10;;;10.30;;
69087;SDS011;56190;43.562;5.036;2022-12-07T05:13:58;13.40;;;10.05;;
69087;SDS011;56190;43.562;5.036;2022-12-07T05:16:23;12.20;;;9.80;;
69087;SDS011;56190;43.562;5.036;2022-12-07T05:18:49;14.10;;;10.55;;
69087;SDS011;56190;43.562;5.036;2022-12-07T05:21:14;12.00;;;10.00;;
69087;SDS011;56190;43.562;5.036;2022-12-07T05:23:39;12.63;;;10.27;;
69087;SDS011;56190;43.562;5.036;2022-12-07T05:26:05;13.30;;;10.98;;
69087;SDS011;56190;43.562;5.036;2022-12-07T05:28:30;13.48;;;10.98;;
69087;SDS011;56190;43.562;5.036;2022-12-07T05:30:55;13.70;;;10.48;;
69087;SDS011;56190;43.562;5.036;2022-12-07T05:33:21;17.95;;;11.80;;
69087;SDS011;56190;43.562;5.036;2022-12-07T05:35:46;14.82;;;12.00;;
69087;SDS011;56190;43.562;5.036;2022-12-07T05:38:11;13.93;;;11.43;;
69087;SDS011;56190;43.562;5.036;2022-12-07T05:40:37;14.88;;;11.27;;
69087;SDS011;56190;43.562;5.036;2022-12-07T05:43:02;16.88;;;13.18;;
69087;SDS011;56190;43.562;5.036;2022-12-07T05:45:27;18.00;;;14.13;;
69087;SDS011;56190;43.562;5.036;2022-12-07T05:47:52;19.20;;;15.02;;
69087;SDS011;56190;43.562;5.036;2022-12-07T05:50:18;18.10;;;13.90;;
69087;SDS011;56190;43.562;5.036;2022-12-07T05:52:43;16.33;;;12.82;;
69087;SDS011;56190;43.562;5.036;2022-12-07T05:55:08;15.57;;;12.13;;
69087;SDS011;56190;43.562;5.036;2022-12-07T05:57:33;15.45;;;12.18;;
69087;SDS011;56190;43.562;5.036;2022-12-07T05:59:58;14.15;;;11.77;;
69087;SDS011;56190;43.562;5.036;2022-12-07T06:02:24;15.05;;;11.90;;
69087;SDS011;56190;43.562;5.036;2022-12-07T06:04:49;13.98;;;11.35;;
69087;SDS011;56190;43.562;5.036;2022-12-07T06:07:15;13.52;;;10.10;;
69087;SDS011;56190;43.562;5.036;2022-12-07T06:09:40;12.90;;;10.63;;
69087;SDS011;56190;43.562;5.036;2022-12-07T06:12:06;14.00;;;10.88;;
69087;SDS011;56190;43.562;5.036;2022-12-07T06:14:50;13.98;;;11.48;;
69087;SDS011;56190;43.562;5.036;2022-12-07T06:17:18;14.80;;;12.85;;
69087;SDS011;56190;43.562;5.036;2022-12-07T06:19:43;15.20;;;12.45;;
69087;SDS011;56190;43.562;5.036;2022-12-07T06:22:09;15.10;;;12.07;;
69087;SDS011;56190;43.562;5.036;2022-12-07T06:24:36;13.93;;;11.48;;
69087;SDS011;56190;43.562;5.036;2022-12-07T06:27:02;14.07;;;11.63;;
69087;SDS011;56190;43.562;5.036;2022-12-07T06:29:27;13.45;;;11.38;;
69087;SDS011;56190;43.562;5.036;2022-12-07T06:31:52;12.43;;;10.43;;
69087;SDS011;56190;43.562;5.036;2022-12-07T06:34:18;12.48;;;10.38;;
69087;SDS011;56190;43.562;5.036;2022-12-07T06:36:44;14.25;;;11.32;;
69087;SDS011;56190;43.562;5.036;2022-12-07T06:39:10;14.38;;;11.70;;
69087;SDS011;56190;43.562;5.036;2022-12-07T06:41:36;13.88;;;10.88;;
69087;SDS011;56190;43.562;5.036;2022-12-07T06:44:01;14.98;;;11.63;;
69087;SDS011;56190;43.562;5.036;2022-12-07T06:46:27;12.48;;;10.07;;
69087;SDS011;56190;43.562;5.036;2022-12-07T06:48:52;12.43;;;10.50;;
69087;SDS011;56190;43.562;5.036;2022-12-07T06:51:17;12.45;;;9.77;;
69087;SDS011;56190;43.562;5.036;2022-12-07T06:53:42;11.77;;;10.10;;
69087;SDS011;56190;43.562;5.036;2022-12-07T06:56:08;13.48;;;10.73;;
69087;SDS011;56190;43.562;5.036;2022-12-07T06:58:33;14.40;;;11.35;;
69087;SDS011;56190;43.562;5.036;2022-12-07T07:00:58;13.95;;;10.70;;
69087;SDS011;56190;43.562;5.036;2022-12-07T07:03:24;13.88;;;10.48;;
69087;SDS011;56190;43.562;5.036;2022-12-07T07:05:49;12.48;;;10.05;;
69087;SDS011;56190;43.562;5.036;2022-12-07T07:08:14;12.70;;;10.40;;
69087;SDS011;56190;43.562;5.036;2022-12-07T07:10:40;11.60;;;9.45;;
69087;SDS011;56190;43.562;5.036;2022-12-07T07:13:05;12.48;;;9.93;;
69087;SDS011;56190;43.562;5.036;2022-12-07T07:15:31;12.52;;;10.57;;
69087;SDS011;56190;43.562;5.036;2022-12-07T07:17:56;12.40;;;10.50;;
69087;SDS011;56190;43.562;5.036;2022-12-07T07:20:21;12.93;;;10.43;;
69087;SDS011;56190;43.562;5.036;2022-12-07T07:22:47;12.77;;;10.48;;
69087;SDS011;56190;43.562;5.036;2022-12-07T07:25:12;13.15;;;10.40;;
69087;SDS011;56190;43.562;5.036;2022-12-07T07:27:37;11.95;;;9.82;;
69087;SDS011;56190;43.562;5.036;2022-12-07T07:30:03;11.27;;;9.07;;
69087;SDS011;56190;43.562;5.036;2022-12-07T07:32:29;11.43;;;9.70;;
69087;SDS011;56190;43.562;5.036;2022-12-07T07:34:54;12.27;;;10.07;;
69087;SDS011;56190;43.562;5.036;2022-12-07T07:37:19;11.77;;;9.45;;
69087;SDS011;56190;43.562;5.036;2022-12-07T07:39:45;13.20;;;10.13;;
69087;SDS011;56190;43.562;5.036;2022-12-07T07:42:10;11.32;;;9.40;;
69087;SDS011;56190;43.562;5.036;2022-12-07T07:44:35;11.98;;;9.70;;
69087;SDS011;56190;43.562;5.036;2022-12-07T07:47:00;13.23;;;10.80;;
69087;SDS011;56190;43.562;5.036;2022-12-07T07:49:26;14.38;;;10.43;;
69087;SDS011;56190;43.562;5.036;2022-12-07T07:51:51;13.00;;;9.98;;
69087;SDS011;56190;43.562;5.036;2022-12-07T07:54:16;13.02;;;9.93;;
69087;SDS011;56190;43.562;5.036;2022-12-07T07:56:42;12.38;;;8.73;;
69087;SDS011;56190;43.562;5.036;2022-12-07T07:59:07;11.93;;;9.50;;
69087;SDS011;56190;43.562;5.036;2022-12-07T08:01:33;12.32;;;9.18;;
69087;SDS011;56190;43.562;5.036;2022-12-07T08:03:58;11.30;;;8.80;;
69087;SDS011;56190;43.562;5.036;2022-12-07T08:06:23;12.27;;;9.85;;
69087;SDS011;56190;43.562;5.036;2022-12-07T08:08:49;11.07;;;9.35;;
69087;SDS011;56190;43.562;5.036;2022-12-07T08:11:14;12.95;;;8.63;;
69087;SDS011;56190;43.562;5.036;2022-12-07T08:13:39;12.13;;;8.93;;
69087;SDS011;56190;43.562;5.036;2022-12-07T08:16:05;9.82;;;8.43;;
69087;SDS011;56190;43.562;5.036;2022-12-07T08:18:31;11.82;;;8.65;;
69087;SDS011;56190;43.562;5.036;2022-12-07T08:21:00;11.90;;;9.07;;
69087;SDS011;56190;43.562;5.036;2022-12-07T08:23:28;10.73;;;8.45;;
69087;SDS011;56190;43.562;5.036;2022-12-07T08:25:54;11.45;;;8.75;;
69087;SDS011;56190;43.562;5.036;2022-12-07T08:28:19;10.07;;;8.15;;
69087;SDS011;56190;43.562;5.036;2022-12-07T08:30:44;10.25;;;8.63;;
69087;SDS011;56190;43.562;5.036;2022-12-07T08:33:10;12.38;;;8.98;;
69087;SDS011;56190;43.562;5.036;2022-12-07T08:35:35;11.13;;;8.27;;
69087;SDS011;56190;43.562;5.036;2022-12-07T08:38:01;11.70;;;9.05;;
69087;SDS011;56190;43.562;5.036;2022-12-07T08:40:27;9.77;;;8.15;;
69087;SDS011;56190;43.562;5.036;2022-12-07T08:42:52;10.68;;;8.57;;
69087;SDS011;56190;43.562;5.036;2022-12-07T08:45:18;12.68;;;8.25;;
69087;SDS011;56190;43.562;5.036;2022-12-07T08:47:46;10.88;;;8.77;;
69087;SDS011;56190;43.562;5.036;2022-12-07T08:50:13;9.95;;;7.85;;
69087;SDS011;56190;43.562;5.036;2022-12-07T08:52:38;10.00;;;8.07;;
69087;SDS011;56190;43.562;5.036;2022-12-07T08:55:05;11.82;;;8.23;;
69087;SDS011;56190;43.562;5.036;2022-12-07T08:57:31;9.93;;;7.47;;
69087;SDS011;56190;43.562;5.036;2022-12-07T08:59:57;9.13;;;7.47;;
69087;SDS011;56190;43.562;5.036;2022-12-07T09:02:23;11.02;;;7.25;;
69087;SDS011;56190;43.562;5.036;2022-12-07T09:04:48;9.77;;;7.63;;
69087;SDS011;56190;43.562;5.036;2022-12-07T09:07:13;8.85;;;6.97;;
69087;SDS011;56190;43.562;5.036;2022-12-07T09:09:38;9.45;;;7.43;;
69087;SDS011;56190;43.562;5.036;2022-12-07T09:12:04;8.90;;;6.65;;
69087;SDS011;56190;43.562;5.036;2022-12-07T09:14:29;8.15;;;7.03;;
69087;SDS011;56190;43.562;5.036;2022-12-07T09:16:54;8.27;;;7.00;;
69087;SDS011;56190;43.562;5.036;2022-12-07T09:19:20;7.88;;;6.30;;
69087;SDS011;56190;43.562;5.036;2022-12-07T09:21:45;6.93;;;5.88;;
69087;SDS011;56190;43.562;5.036;2022-12-07T09:24:11;8.20;;;6.10;;
69087;SDS011;56190;43.562;5.036;2022-12-07T09:26:36;8.77;;;6.10;;
69087;SDS011;56190;43.562;5.036;2022-12-07T09:29:02;8.23;;;7.07;;
69087;SDS011;56190;43.562;5.036;2022-12-07T09:31:28;8.20;;;7.10;;
69087;SDS011;56190;43.562;5.036;2022-12-07T09:33:54;7.63;;;5.72;;
69087;SDS011;56190;43.562;5.036;2022-12-07T09:36:20;6.97;;;5.75;;
69087;SDS011;56190;43.562;5.036;2022-12-07T09:38:45;7.88;;;5.40;;
69087;SDS011;56190;43.562;5.036;2022-12-07T09:41:11;7.28;;;5.28;;
69087;SDS011;56190;43.562;5.036;2022-12-07T09:43:36;8.10;;;6.50;;
69087;SDS011;56190;43.562;5.036;2022-12-07T09:46:02;6.55;;;5.28;;
69087;SDS011;56190;43.562;5.036;2022-12-07T09:48:32;10.07;;;6.20;;
69087;SDS011;56190;43.562;5.036;2022-12-07T09:50:59;7.13;;;5.72;;
69087;SDS011;56190;43.562;5.036;2022-12-07T09:55:50;6.57;;;5.45;;
69087;SDS011;56190;43.562;5.036;2022-12-07T09:58:24;7.10;;;4.88;;
69087;SDS011;56190;43.562;5.036;2022-12-07T10:00:58;5.55;;;4.50;;
69087;SDS011;56190;43.562;5.036;2022-12-07T10:03:26;6.80;;;5.32;;
69087;SDS011;56190;43.562;5.036;2022-12-07T10:05:51;5.78;;;4.82;;
69087;SDS011;56190;43.562;5.036;2022-12-07T10:08:17;6.05;;;4.90;;
69087;SDS011;56190;43.562;5.036;2022-12-07T10:10:44;6.45;;;4.95;;
69087;SDS011;56190;43.562;5.036;2022-12-07T10:13:10;5.25;;;4.22;;
69087;SDS011;56190;43.562;5.036;2022-12-07T10:15:49;6.15;;;4.93;;
69087;SDS011;56190;43.562;5.036;2022-12-07T10:24:03;6.50;;;4.90;;
69087;SDS011;56190;43.562;5.036;2022-12-07T10:26:31;7.80;;;5.10;;
69087;SDS011;56190;43.562;5.036;2022-12-07T10:29:42;5.28;;;3.80;;
69087;SDS011;56190;43.562;5.036;2022-12-07T10:31:42;5.57;;;3.97;;
69087;SDS011;56190;43.562;5.036;2022-12-07T10:34:20;5.60;;;4.45;;
69087;SDS011;56190;43.562;5.036;2022-12-07T10:36:46;6.80;;;4.68;;
69087;SDS011;56190;43.562;5.036;2022-12-07T10:39:16;4.70;;;3.92;;
69087;SDS011;56190;43.562;5.036;2022-12-07T10:42:02;5.60;;;4.05;;
69087;SDS011;56190;43.562;5.036;2022-12-07T10:44:28;5.82;;;3.60;;
69087;SDS011;56190;43.562;5.036;2022-12-07T10:49:33;4.00;;;3.17;;
69087;SDS011;56190;43.562;5.036;2022-12-07T11:05:09;4.50;;;3.10;;
69087;SDS011;56190;43.562;5.036;2022-12-07T11:13:19;4.05;;;3.30;;
69087;SDS011;56190;43.562;5.036;2022-12-07T11:16:01;5.68;;;3.28;;
69087;SDS011;56190;43.562;5.036;2022-12-07T11:18:28;4.55;;;3.10;;
69087;SDS011;56190;43.562;5.036;2022-12-07T11:31:51;4.07;;;3.30;;
69087;SDS011;56190;43.562;5.036;2022-12-07T11:37:08;4.63;;;3.10;;
69087;SDS011;56190;43.562;5.036;2022-12-07T11:39:39;4.05;;;3.15;;
69087;SDS011;56190;43.562;5.036;2022-12-07T11:42:19;4.40;;;3.08;;
69087;SDS011;56190;43.562;5.036;2022-12-07T11:44:53;3.38;;;2.58;;
69087;SDS011;56190;43.562;5.036;2022-12-07T11:47:22;4.15;;;2.72;;
69087;SDS011;56190;43.562;5.036;2022-12-07T11:52:51;3.83;;;2.83;;
69087;SDS011;56190;43.562;5.036;2022-12-07T11:55:32;3.58;;;3.05;;
69087;SDS011;56190;43.562;5.036;2022-12-07T11:58:04;4.28;;;3.20;;
69087;SDS011;56190;43.562;5.036;2022-12-07T12:00:34;5.18;;;3.47;;
69087;SDS011;56190;43.562;5.036;2022-12-07T12:03:04;5.88;;;3.40;;
69087;SDS011;56190;43.562;5.036;2022-12-07T12:05:34;4.80;;;3.45;;
69087;SDS011;56190;43.562;5.036;2022-12-07T12:08:02;4.82;;;3.65;;
69087;SDS011;56190;43.562;5.036;2022-12-07T12:15:42;4.40;;;3.33;;
69087;SDS011;56190;43.562;5.036;2022-12-07T12:21:01;4.38;;;3.28;;
69087;SDS011;56190;43.562;5.036;2022-12-07T12:25:59;6.75;;;3.15;;
69087;SDS011;56190;43.562;5.036;2022-12-07T12:28:34;5.68;;;3.60;;
69087;SDS011;56190;43.562;5.036;2022-12-07T12:31:05;4.20;;;2.92;;
69087;SDS011;56190;43.562;5.036;2022-12-07T12:33:31;5.45;;;3.20;;
69087;SDS011;56190;43.562;5.036;2022-12-07T12:36:43;4.95;;;2.97;;
69087;SDS011;56190;43.562;5.036;2022-12-07T12:43:57;5.55;;;3.40;;
69087;SDS011;56190;43.562;5.036;2022-12-07T12:46:36;5.63;;;3.15;;
69087;SDS011;56190;43.562;5.036;2022-12-07T13:02:09;6.07;;;2.90;;
69087;SDS011;56190;43.562;5.036;2022-12-07T13:04:48;4.97;;;3.10;;
69087;SDS011;56190;43.562;5.036;2022-12-07T13:07:47;4.38;;;3.25;;
69087;SDS011;56190;43.562;5.036;2022-12-07T13:10:00;3.67;;;2.95;;
69087;SDS011;56190;43.562;5.036;2022-12-07T13:12:26;3.97;;;2.72;;
69087;SDS011;56190;43.562;5.036;2022-12-07T13:14:53;4.60;;;3.20;;
69087;SDS011;56190;43.562;5.036;2022-12-07T13:19:57;4.18;;;3.00;;
69087;SDS011;56190;43.562;5.036;2022-12-07T13:25:05;5.40;;;3.03;;
69087;SDS011;56190;43.562;5.036;2022-12-07T13:27:32;4.97;;;3.45;;
69087;SDS011;56190;43.562;5.036;2022-12-07T13:29:58;4.53;;;3.22;;
69087;SDS011;56190;43.562;5.036;2022-12-07T13:32:24;5.35;;;2.97;;
69087;SDS011;56190;43.562;5.036;2022-12-07T13:34:49;4.00;;;3.15;;
69087;SDS011;56190;43.562;5.036;2022-12-07T13:39:49;4.22;;;3.17;;
69087;SDS011;56190;43.562;5.036;2022-12-07T13:44:40;4.43;;;3.25;;
69087;SDS011;56190;43.562;5.036;2022-12-07T13:47:20;5.03;;;3.20;;
69087;SDS011;56190;43.562;5.036;2022-12-07T13:49:49;5.10;;;3.40;;
69087;SDS011;56190;43.562;5.036;2022-12-07T13:54:45;6.03;;;3.50;;
69087;SDS011;56190;43.562;5.036;2022-12-07T13:57:11;5.03;;;3.70;;
69087;SDS011;56190;43.562;5.036;2022-12-07T13:59:36;4.30;;;3.20;;
69087;SDS011;56190;43.562;5.036;2022-12-07T14:02:16;3.97;;;3.03;;
69087;SDS011;56190;43.562;5.036;2022-12-07T14:04:42;5.05;;;3.75;;
69087;SDS011;56190;43.562;5.036;2022-12-07T14:07:27;5.55;;;3.70;;
69087;SDS011;56190;43.562;5.036;2022-12-07T14:12:20;5.97;;;3.50;;
69087;SDS011;56190;43.562;5.036;2022-12-07T14:14:47;8.63;;;3.72;;
69087;SDS011;56190;43.562;5.036;2022-12-07T14:22:07;6.18;;;4.20;;
69087;SDS011;56190;43.562;5.036;2022-12-07T14:24:40;6.38;;;4.75;;
69087;SDS011;56190;43.562;5.036;2022-12-07T14:27:14;5.80;;;4.38;;
69087;SDS011;56190;43.562;5.036;2022-12-07T14:29:41;5.80;;;4.40;;
69087;SDS011;56190;43.562;5.036;2022-12-07T14:32:26;6.68;;;4.20;;
69087;SDS011;56190;43.562;5.036;2022-12-07T14:35:08;5.95;;;4.38;;
69087;SDS011;56190;43.562;5.036;2022-12-07T14:37:35;7.57;;;4.90;;
69087;SDS011;56190;43.562;5.036;2022-12-07T14:40:00;6.05;;;4.32;;
69087;SDS011;56190;43.562;5.036;2022-12-07T14:42:27;6.53;;;4.45;;
69087;SDS011;56190;43.562;5.036;2022-12-07T14:44:53;5.28;;;4.43;;
69087;SDS011;56190;43.562;5.036;2022-12-07T14:47:18;5.25;;;4.50;;
69087;SDS011;56190;43.562;5.036;2022-12-07T14:49:43;6.38;;;4.63;;
69087;SDS011;56190;43.562;5.036;2022-12-07T14:52:19;5.80;;;4.53;;
69087;SDS011;56190;43.562;5.036;2022-12-07T14:54:45;7.10;;;4.97;;
69087;SDS011;56190;43.562;5.036;2022-12-07T14:57:11;6.38;;;4.43;;
69087;SDS011;56190;43.562;5.036;2022-12-07T14:59:36;5.80;;;4.47;;
69087;SDS011;56190;43.562;5.036;2022-12-07T15:02:01;5.97;;;4.68;;
69087;SDS011;56190;43.562;5.036;2022-12-07T15:04:27;7.70;;;5.30;;
69087;SDS011;56190;43.562;5.036;2022-12-07T15:06:59;6.00;;;4.75;;
69087;SDS011;56190;43.562;5.036;2022-12-07T15:09:25;5.47;;;4.78;;
69087;SDS011;56190;43.562;5.036;2022-12-07T15:11:50;7.90;;;5.32;;
69087;SDS011;56190;43.562;5.036;2022-12-07T15:14:15;6.30;;;4.97;;
69087;SDS011;56190;43.562;5.036;2022-12-07T15:16:41;6.35;;;5.28;;
69087;SDS011;56190;43.562;5.036;2022-12-07T15:19:14;6.13;;;5.30;;
69087;SDS011;56190;43.562;5.036;2022-12-07T15:21:40;6.68;;;5.07;;
69087;SDS011;56190;43.562;5.036;2022-12-07T15:24:06;6.75;;;5.47;;
69087;SDS011;56190;43.562;5.036;2022-12-07T15:26:31;7.18;;;5.63;;
69087;SDS011;56190;43.562;5.036;2022-12-07T15:28:56;6.63;;;5.13;;
69087;SDS011;56190;43.562;5.036;2022-12-07T15:31:21;7.03;;;5.85;;
69087;SDS011;56190;43.562;5.036;2022-12-07T15:33:47;7.00;;;5.03;;
69087;SDS011;56190;43.562;5.036;2022-12-07T15:36:23;8.25;;;6.40;;
69087;SDS011;56190;43.562;5.036;2022-12-07T15:38:48;7.07;;;5.78;;
69087;SDS011;56190;43.562;5.036;2022-12-07T15:41:14;8.32;;;6.10;;
69087;SDS011;56190;43.562;5.036;2022-12-07T15:43:39;7.60;;;6.20;;
69087;SDS011;56190;43.562;5.036;2022-12-07T15:46:23;8.90;;;6.65;;
69087;SDS011;56190;43.562;5.036;2022-12-07T15:48:48;7.93;;;6.07;;
69087;SDS011;56190;43.562;5.036;2022-12-07T15:51:13;8.80;;;6.90;;
69087;SDS011;56190;43.562;5.036;2022-12-07T15:53:39;7.80;;;6.18;;
69087;SDS011;56190;43.562;5.036;2022-12-07T15:56:07;9.30;;;7.13;;
69087;SDS011;56190;43.562;5.036;2022-12-07T15:58:33;7.70;;;6.28;;
69087;SDS011;56190;43.562;5.036;2022-12-07T16:00:59;10.38;;;7.35;;
69087;SDS011;56190;43.562;5.036;2022-12-07T16:03:24;9.90;;;7.45;;
69087;SDS011;56190;43.562;5.036;2022-12-07T16:05:50;11.50;;;8.35;;
69087;SDS011;56190;43.562;5.036;2022-12-07T16:08:15;13.85;;;7.88;;
69087;SDS011;56190;43.562;5.036;2022-12-07T16:10:40;11.00;;;7.15;;
69087;SDS011;56190;43.562;5.036;2022-12-07T16:13:08;10.10;;;7.13;;
69087;SDS011;56190;43.562;5.036;2022-12-07T16:15:37;10.18;;;7.50;;
69087;SDS011;56190;43.562;5.036;2022-12-07T16:18:02;10.18;;;7.57;;
69087;SDS011;56190;43.562;5.036;2022-12-07T16:20:27;10.57;;;7.07;;
69087;SDS011;56190;43.562;5.036;2022-12-07T16:22:52;10.27;;;7.75;;
69087;SDS011;56190;43.562;5.036;2022-12-07T16:25:18;9.38;;;7.20;;
69087;SDS011;56190;43.562;5.036;2022-12-07T16:27:43;9.57;;;7.63;;
69087;SDS011;56190;43.562;5.036;2022-12-07T16:30:09;9.80;;;7.25;;
69087;SDS011;56190;43.562;5.036;2022-12-07T16:32:34;11.75;;;7.20;;
69087;SDS011;56190;43.562;5.036;2022-12-07T16:34:59;10.75;;;7.88;;
69087;SDS011;56190;43.562;5.036;2022-12-07T16:37:25;10.05;;;7.03;;
69087;SDS011;56190;43.562;5.036;2022-12-07T16:39:50;9.93;;;7.63;;
69087;SDS011;56190;43.562;5.036;2022-12-07T16:42:15;10.95;;;6.88;;